Time;durP1;ratioP1;P1;durP2;ratioP2;P2;SDS_P1;SDS_P2;PMS_P1;PMS_P2;Temp;Humidity;BMP_temperature;BMP_pressure;BME280_temperature;BME280_humidity;BME280_pressure;Samples;Min_cycle;Max_cycle;Signal;HPM_P1;HPM_P2
2023/06/01 00:00:06;;;;;;;14.57;6.70;;;;;;;;;;4986913;28;99909;-79
2023/06/01 00:02:33;;;;;;;9.88;6.13;;;;;;;;;;4986553;28;100066;-78
2023/06/01 00:05:00;;;;;;;10.00;6.05;;;;;;;;;;4989251;28;98665;-79
2023/06/01 00:07:29;;;;;;;13.50;6.93;;;;;;;;;;4993779;28;98956;-78
2023/06/01 00:09:56;;;;;;;11.52;6.72;;;;;;;;;;4970713;28;98358;-79
2023/06/01 00:12:22;;;;;;;8.43;7.20;;;;;;;;;;4990011;28;99826;-78
2023/06/01 00:14:48;;;;;;;12.35;7.05;;;;;;;;;;4986019;28;98389;-80
2023/06/01 00:17:16;;;;;;;12.07;6.47;;;;;;;;;;4992637;28;99034;-80
2023/06/01 00:19:44;;;;;;;11.32;7.65;;;;;;;;;;5003750;28;100081;-80
2023/06/01 00:22:11;;;;;;;10.32;6.75;;;;;;;;;;5001946;28;98243;-78
2023/06/01 00:24:37;;;;;;;8.73;6.95;;;;;;;;;;5000767;28;98363;-80
2023/06/01 00:27:05;;;;;;;13.02;6.50;;;;;;;;;;4993635;28;100097;-79
2023/06/01 00:29:31;;;;;;;16.83;7.43;;;;;;;;;;4983558;28;98237;-79
2023/06/01 00:31:57;;;;;;;12.63;7.47;;;;;;;;;;4992931;28;98825;-78
2023/06/01 00:34:24;;;;;;;12.13;7.15;;;;;;;;;;4994354;28;99071;-78
2023/06/01 00:36:51;;;;;;;14.02;6.88;;;;;;;;;;4991225;28;100609;-79
2023/06/01 00:39:18;;;;;;;9.77;6.72;;;;;;;;;;4989465;28;98678;-79
2023/06/01 00:41:45;;;;;;;10.45;6.65;;;;;;;;;;4991782;28;98752;-79
2023/06/01 00:44:11;;;;;;;11.23;6.03;;;;;;;;;;4994521;28;99727;-79
2023/06/01 00:46:38;;;;;;;13.23;6.97;;;;;;;;;;4991420;28;100972;-79
2023/06/01 00:49:04;;;;;;;11.07;6.05;;;;;;;;;;4987522;28;98388;-79
2023/06/01 00:51:32;;;;;;;14.40;6.50;;;;;;;;;;4995902;28;98507;-79
2023/06/01 00:53:59;;;;;;;12.57;6.90;;;;;;;;;;4991987;28;98779;-80
2023/06/01 00:56:26;;;;;;;10.60;6.20;;;;;;;;;;4995503;28;98434;-78
2023/06/01 00:58:52;;;;;;;15.57;7.88;;;;;;;;;;4991574;28;99292;-79
2023/06/01 01:01:19;;;;;;;11.98;6.90;;;;;;;;;;4990749;28;98335;-79
2023/06/01 01:03:46;;;;;;;14.27;6.28;;;;;;;;;;4991163;28;98381;-79
2023/06/01 01:06:33;;;;;;;10.35;6.40;;;;;;;;;;4988441;28;100000;-80
2023/06/01 01:08:59;;;;;;;5.22;3.20;;;;;;;;;;4990463;28;98994;-80
2023/06/01 01:11:28;;;;;;;7.90;5.45;;;;;;;;;;4987962;28;98706;-79
2023/06/01 01:13:57;;;;;;;6.38;5.32;;;;;;;;;;4988942;28;98879;-79
2023/06/01 01:16:52;;;;;;;14.02;5.05;;;;;;;;;;4991688;28;98945;-79
2023/06/01 01:19:24;;;;;;;6.15;4.90;;;;;;;;;;4965874;28;100808;-80
2023/06/01 01:22:19;;;;;;;13.80;5.53;;;;;;;;;;4987772;28;98234;-79
2023/06/01 01:25:05;;;;;;;9.50;5.22;;;;;;;;;;4956517;28;101030;-79
2023/06/01 01:27:51;;;;;;;12.65;6.10;;;;;;;;;;4989951;28;101537;-79
2023/06/01 01:30:21;;;;;;;10.32;5.65;;;;;;;;;;4988798;28;98518;-79
2023/06/01 01:32:49;;;;;;;15.57;6.15;;;;;;;;;;4990291;28;98561;-80
2023/06/01 01:35:15;;;;;;;14.57;7.22;;;;;;;;;;4989962;28;101249;-80
2023/06/01 01:37:51;;;;;;;14.90;5.90;;;;;;;;;;4989623;28;98300;-80
2023/06/01 01:40:18;;;;;;;8.40;5.72;;;;;;;;;;4993838;28;99759;-79
2023/06/01 01:42:45;;;;;;;6.15;4.93;;;;;;;;;;4989184;28;98343;-78
2023/06/01 01:45:12;;;;;;;11.90;6.38;;;;;;;;;;4991472;28;98693;-79
2023/06/01 01:47:39;;;;;;;9.10;6.22;;;;;;;;;;4988852;28;101841;-79
2023/06/01 01:50:09;;;;;;;10.57;6.35;;;;;;;;;;4988712;28;98256;-81
2023/06/01 01:52:38;;;;;;;8.98;6.18;;;;;;;;;;4987835;28;99406;-79
2023/06/01 01:55:07;;;;;;;8.27;6.18;;;;;;;;;;4989166;28;101770;-80
2023/06/01 01:57:34;;;;;;;6.93;5.57;;;;;;;;;;4990780;28;98340;-80
2023/06/01 02:00:02;;;;;;;14.02;8.38;;;;;;;;;;4989456;28;99549;-78
2023/06/01 02:02:38;;;;;;;11.93;7.07;;;;;;;;;;4991152;28;98878;-78
2023/06/01 02:05:05;;;;;;;12.40;7.18;;;;;;;;;;4989875;28;100729;-77
2023/06/01 02:07:34;;;;;;;9.32;6.10;;;;;;;;;;4986439;28;101321;-78
2023/06/01 02:10:02;;;;;;;11.60;6.43;;;;;;;;;;4989591;28;98399;-78
2023/06/01 02:12:29;;;;;;;12.95;7.45;;;;;;;;;;4988577;28;101257;-80
2023/06/01 02:14:55;;;;;;;10.70;6.30;;;;;;;;;;4991718;28;99089;-79
2023/06/01 02:17:24;;;;;;;9.85;6.70;;;;;;;;;;4987727;28;99487;-79
2023/06/01 02:19:51;;;;;;;17.85;7.05;;;;;;;;;;4990571;28;101047;-78
2023/06/01 02:22:17;;;;;;;13.95;6.72;;;;;;;;;;4989749;28;99877;-78
2023/06/01 02:24:45;;;;;;;8.88;6.65;;;;;;;;;;4990889;28;98350;-80
2023/06/01 02:27:12;;;;;;;12.55;8.13;;;;;;;;;;4982237;28;100727;-81
2023/06/01 02:29:38;;;;;;;10.55;7.28;;;;;;;;;;4987504;28;98350;-78
2023/06/01 02:32:05;;;;;;;13.35;6.75;;;;;;;;;;4991017;28;100357;-79
2023/06/01 02:34:32;;;;;;;13.50;7.78;;;;;;;;;;4991060;28;98535;-80
2023/06/01 02:36:59;;;;;;;9.38;6.13;;;;;;;;;;4994098;28;97962;-79
2023/06/01 02:39:25;;;;;;;10.55;7.28;;;;;;;;;;4995532;28;101257;-79
2023/06/01 02:41:52;;;;;;;9.15;6.60;;;;;;;;;;4990908;28;98840;-78
2023/06/01 02:44:19;;;;;;;12.95;7.40;;;;;;;;;;4988353;28;98272;-79
2023/06/01 02:46:46;;;;;;;14.00;7.32;;;;;;;;;;4992003;28;99326;-78
2023/06/01 02:49:12;;;;;;;13.73;8.02;;;;;;;;;;4988232;28;98274;-78
2023/06/01 02:51:38;;;;;;;12.48;7.32;;;;;;;;;;4988881;28;98211;-79
2023/06/01 02:54:12;;;;;;;12.82;7.55;;;;;;;;;;4989197;28;98976;-79
2023/06/01 02:56:39;;;;;;;11.20;6.82;;;;;;;;;;4988726;28;98345;-80
2023/06/01 02:59:31;;;;;;;8.43;7.23;;;;;;;;;;4991100;28;98324;-81
2023/06/01 03:02:02;;;;;;;16.10;6.57;;;;;;;;;;4992895;28;98144;-79
2023/06/01 03:04:32;;;;;;;11.23;7.07;;;;;;;;;;4977106;28;98135;-79
2023/06/01 03:06:59;;;;;;;14.23;6.72;;;;;;;;;;4988616;28;98095;-78
2023/06/01 03:09:37;;;;;;;16.13;6.82;;;;;;;;;;4997315;28;98533;-80
2023/06/01 03:12:08;;;;;;;10.70;7.07;;;;;;;;;;4995896;28;101578;-79
2023/06/01 03:14:35;;;;;;;10.40;7.47;;;;;;;;;;4994818;28;98127;-79
2023/06/01 03:17:01;;;;;;;10.20;6.88;;;;;;;;;;4995257;28;98368;-80
2023/06/01 03:19:28;;;;;;;17.23;6.80;;;;;;;;;;4986954;28;101166;-79
2023/06/01 03:21:57;;;;;;;12.18;8.18;;;;;;;;;;4997362;28;101581;-80
2023/06/01 03:24:26;;;;;;;10.43;7.90;;;;;;;;;;4996038;28;99225;-80
2023/06/01 03:26:52;;;;;;;7.78;6.50;;;;;;;;;;4993187;28;99873;-81
2023/06/01 03:29:20;;;;;;;13.73;8.02;;;;;;;;;;4977947;28;100995;-79
2023/06/01 03:31:46;;;;;;;20.02;8.52;;;;;;;;;;4982753;28;99240;-80
2023/06/01 03:34:14;;;;;;;11.13;7.82;;;;;;;;;;4988316;28;100132;-80
2023/06/01 03:36:45;;;;;;;18.83;8.27;;;;;;;;;;4989500;28;98322;-79
2023/06/01 03:39:12;;;;;;;19.38;8.82;;;;;;;;;;4988165;28;99365;-80
2023/06/01 03:41:38;;;;;;;16.30;7.20;;;;;;;;;;4986818;28;100020;-78
2023/06/01 03:44:05;;;;;;;17.15;8.52;;;;;;;;;;4988530;28;98081;-79
2023/06/01 03:46:31;;;;;;;19.85;8.90;;;;;;;;;;4992801;28;99371;-79
2023/06/01 03:48:58;;;;;;;13.75;7.97;;;;;;;;;;4993413;28;99946;-79
2023/06/01 03:51:25;;;;;;;16.58;8.25;;;;;;;;;;4999940;28;98638;-78
2023/06/01 03:53:52;;;;;;;17.17;7.93;;;;;;;;;;4990252;28;99474;-79
2023/06/01 03:56:19;;;;;;;12.23;6.63;;;;;;;;;;4992480;28;98244;-78
2023/06/01 03:58:46;;;;;;;19.02;8.68;;;;;;;;;;4991378;28;100503;-78
2023/06/01 04:01:16;;;;;;;18.92;8.18;;;;;;;;;;4994376;28;98989;-78
2023/06/01 04:03:43;;;;;;;13.75;8.10;;;;;;;;;;4994291;28;98418;-79
2023/06/01 04:06:13;;;;;;;15.48;7.20;;;;;;;;;;4990924;28;101135;-79
2023/06/01 04:08:49;;;;;;;15.73;7.82;;;;;;;;;;4983667;28;101280;-79
2023/06/01 04:11:16;;;;;;;23.30;8.25;;;;;;;;;;4998353;28;98898;-78
2023/06/01 04:13:46;;;;;;;11.77;7.13;;;;;;;;;;4979654;28;101134;-79
2023/06/01 04:16:13;;;;;;;14.52;7.18;;;;;;;;;;5005250;28;98201;-78
2023/06/01 04:18:40;;;;;;;15.38;7.68;;;;;;;;;;5002154;28;100309;-79
2023/06/01 04:21:13;;;;;;;13.13;7.13;;;;;;;;;;5005534;28;100548;-79
2023/06/01 04:23:42;;;;;;;16.90;7.18;;;;;;;;;;5010972;28;97913;-79
2023/06/01 04:26:11;;;;;;;11.90;6.33;;;;;;;;;;5004820;28;98546;-79
2023/06/01 04:28:43;;;;;;;13.95;6.97;;;;;;;;;;5008526;28;99030;-79
2023/06/01 04:31:16;;;;;;;;;;;;;;;;;;5008071;28;98233;-79
2023/06/01 04:33:44;;;;;;;18.98;7.18;;;;;;;;;;5002956;28;100076;-79
2023/06/01 04:36:12;;;;;;;12.65;6.35;;;;;;;;;;5003716;28;98906;-80
2023/06/01 04:38:41;;;;;;;11.05;6.22;;;;;;;;;;5000423;28;98145;-80
2023/06/01 04:41:09;;;;;;;13.50;7.03;;;;;;;;;;4996929;28;100506;-79
2023/06/01 04:43:39;;;;;;;12.70;6.93;;;;;;;;;;4993776;28;98332;-79
2023/06/01 04:46:07;;;;;;;13.95;6.97;;;;;;;;;;4997670;28;100518;-79
2023/06/01 04:48:34;;;;;;;15.55;7.55;;;;;;;;;;4993075;28;101398;-79
2023/06/01 04:51:03;;;;;;;11.80;5.68;;;;;;;;;;4990260;28;98334;-79
2023/06/01 04:53:30;;;;;;;10.65;7.40;;;;;;;;;;4990703;28;100263;-79
2023/06/01 04:55:57;;;;;;;19.00;7.93;;;;;;;;;;4990676;28;101207;-78
2023/06/01 04:58:25;;;;;;;13.68;7.40;;;;;;;;;;4993749;28;99495;-78
2023/06/01 05:00:52;;;;;;;18.85;7.18;;;;;;;;;;4992953;28;101687;-78
2023/06/01 05:03:19;;;;;;;14.15;6.60;;;;;;;;;;4991649;28;98277;-77
2023/06/01 05:05:46;;;;;;;12.73;6.70;;;;;;;;;;4998111;28;100567;-79
2023/06/01 05:08:14;;;;;;;14.63;7.10;;;;;;;;;;5005589;28;98594;-78
2023/06/01 05:10:41;;;;;;;13.38;7.53;;;;;;;;;;5005777;28;98294;-79
2023/06/01 05:13:07;;;;;;;13.48;7.40;;;;;;;;;;5009035;28;99849;-79
2023/06/01 05:15:35;;;;;;;9.52;6.95;;;;;;;;;;5005810;28;100935;-79
2023/06/01 05:18:02;;;;;;;15.77;7.82;;;;;;;;;;5004892;28;98110;-79
2023/06/01 05:20:28;;;;;;;12.20;6.90;;;;;;;;;;5005163;28;100497;-79
2023/06/01 05:22:57;;;;;;;17.40;7.88;;;;;;;;;;5007299;28;98331;-79
2023/06/01 05:25:24;;;;;;;13.93;7.65;;;;;;;;;;4989246;28;99761;-79
2023/06/01 05:27:51;;;;;;;15.20;7.38;;;;;;;;;;4998262;28;101605;-80
2023/06/01 05:30:17;;;;;;;18.85;6.07;;;;;;;;;;5001406;28;98583;-80
2023/06/01 05:32:46;;;;;;;17.25;7.28;;;;;;;;;;4998075;28;99672;-78
2023/06/01 05:35:17;;;;;;;12.07;6.57;;;;;;;;;;4991335;28;101713;-78
2023/06/01 05:37:44;;;;;;;8.98;6.35;;;;;;;;;;4991566;28;99721;-80
2023/06/01 05:40:13;;;;;;;8.65;7.28;;;;;;;;;;4996771;28;98548;-78
2023/06/01 05:42:40;;;;;;;8.52;6.38;;;;;;;;;;4994596;28;98127;-80
2023/06/01 05:45:06;;;;;;;10.82;7.07;;;;;;;;;;4994827;28;98319;-80
2023/06/01 05:47:33;;;;;;;13.38;6.78;;;;;;;;;;4995738;28;100597;-79
2023/06/01 05:50:00;;;;;;;11.30;6.90;;;;;;;;;;5003875;28;98455;-79
2023/06/01 05:52:26;;;;;;;16.15;6.72;;;;;;;;;;4998816;28;98652;-79
2023/06/01 05:54:53;;;;;;;15.43;6.70;;;;;;;;;;4998129;28;101302;-78
2023/06/01 05:57:20;;;;;;;10.85;6.30;;;;;;;;;;4998824;28;98204;-79
2023/06/01 05:59:47;;;;;;;17.40;7.07;;;;;;;;;;4998351;28;102851;-80
2023/06/01 06:02:14;;;;;;;10.90;6.00;;;;;;;;;;5000235;28;99022;-79
2023/06/01 06:04:40;;;;;;;15.85;7.35;;;;;;;;;;5004204;28;98552;-78
2023/06/01 06:07:08;;;;;;;16.48;7.78;;;;;;;;;;5000508;28;98830;-79
2023/06/01 06:09:34;;;;;;;10.82;6.15;;;;;;;;;;4995826;28;98078;-78
2023/06/01 06:12:01;;;;;;;9.98;4.75;;;;;;;;;;4990149;28;99762;-80
2023/06/01 06:14:27;;;;;;;15.25;6.00;;;;;;;;;;4989532;28;98891;-79
2023/06/01 06:16:54;;;;;;;13.55;6.40;;;;;;;;;;4990670;28;98901;-79
2023/06/01 06:19:21;;;;;;;10.60;6.93;;;;;;;;;;4990402;28;98782;-79
2023/06/01 06:21:48;;;;;;;13.35;6.82;;;;;;;;;;4985975;28;99835;-79
2023/06/01 06:24:15;;;;;;;10.23;6.20;;;;;;;;;;4988811;28;98260;-79
2023/06/01 06:26:41;;;;;;;10.82;6.07;;;;;;;;;;4988803;28;100113;-77
2023/06/01 06:29:08;;;;;;;12.77;6.63;;;;;;;;;;4988713;28;98724;-79
2023/06/01 06:31:34;;;;;;;15.18;6.43;;;;;;;;;;4987921;28;98648;-78
2023/06/01 06:34:01;;;;;;;10.90;7.40;;;;;;;;;;4986688;28;100160;-79
2023/06/01 06:36:27;;;;;;;12.43;7.00;;;;;;;;;;4988360;28;98126;-78
2023/06/01 06:38:54;;;;;;;16.83;7.25;;;;;;;;;;4988990;28;99635;-78
2023/06/01 06:41:20;;;;;;;8.43;5.13;;;;;;;;;;4987421;28;100060;-78
2023/06/01 06:43:47;;;;;;;11.00;6.53;;;;;;;;;;4988028;28;98438;-79
2023/06/01 06:46:13;;;;;;;11.98;6.15;;;;;;;;;;4989997;28;99583;-79
2023/06/01 06:48:40;;;;;;;14.10;7.43;;;;;;;;;;4984132;28;98387;-78
2023/06/01 06:51:06;;;;;;;12.93;7.07;;;;;;;;;;4989822;28;99592;-80
2023/06/01 06:53:33;;;;;;;8.07;5.90;;;;;;;;;;4981134;28;99933;-79
2023/06/01 06:55:59;;;;;;;9.57;6.85;;;;;;;;;;4985113;28;98325;-79
2023/06/01 06:58:26;;;;;;;10.40;6.47;;;;;;;;;;4989442;28;98632;-80
2023/06/01 07:00:53;;;;;;;12.38;6.82;;;;;;;;;;4980882;28;100226;-80
2023/06/01 07:03:20;;;;;;;8.88;5.65;;;;;;;;;;4986186;28;98196;-79
2023/06/01 07:05:47;;;;;;;15.38;6.90;;;;;;;;;;4988896;28;99503;-80
2023/06/01 07:08:14;;;;;;;9.27;6.75;;;;;;;;;;4980027;28;100378;-79
2023/06/01 07:10:41;;;;;;;9.88;6.75;;;;;;;;;;4976896;28;99389;-79
2023/06/01 07:13:07;;;;;;;12.60;6.03;;;;;;;;;;4986920;28;98957;-80
2023/06/01 07:15:34;;;;;;;10.40;6.22;;;;;;;;;;4987773;28;97984;-80
2023/06/01 07:18:00;;;;;;;11.80;6.35;;;;;;;;;;4985268;28;100166;-80
2023/06/01 07:20:27;;;;;;;8.57;5.43;;;;;;;;;;4989573;28;99943;-80
2023/06/01 07:22:53;;;;;;;11.00;5.65;;;;;;;;;;4994737;28;98383;-79
2023/06/01 07:25:20;;;;;;;10.15;6.53;;;;;;;;;;4999477;28;98346;-80
2023/06/01 07:27:48;;;;;;;9.35;6.40;;;;;;;;;;4996515;28;100083;-79
2023/06/01 07:30:14;;;;;;;11.20;6.32;;;;;;;;;;4992087;28;101987;-79
2023/06/01 07:32:41;;;;;;;12.48;5.95;;;;;;;;;;4993288;28;98737;-78
2023/06/01 07:35:09;;;;;;;9.48;4.85;;;;;;;;;;4991862;28;98333;-80
2023/06/01 07:37:36;;;;;;;13.65;5.65;;;;;;;;;;4989287;28;98047;-78
2023/06/01 07:40:05;;;;;;;10.98;5.95;;;;;;;;;;4980504;28;100115;-79
2023/06/01 07:42:34;;;;;;;10.60;5.28;;;;;;;;;;4986143;28;98292;-80
2023/06/01 07:45:00;;;;;;;8.82;4.53;;;;;;;;;;4978428;28;100958;-80
2023/06/01 07:47:28;;;;;;;11.02;4.90;;;;;;;;;;4987177;28;98830;-79
2023/06/01 07:49:55;;;;;;;12.60;5.00;;;;;;;;;;4989628;28;98217;-78
2023/06/01 07:52:21;;;;;;;9.48;6.10;;;;;;;;;;4985685;28;100291;-78
2023/06/01 07:54:49;;;;;;;10.85;5.03;;;;;;;;;;4987678;28;99510;-78
2023/06/01 07:57:16;;;;;;;10.00;6.30;;;;;;;;;;4985067;28;98536;-79
2023/06/01 07:59:42;;;;;;;10.18;4.95;;;;;;;;;;4978806;28;99140;-80
2023/06/01 08:02:10;;;;;;;10.82;5.22;;;;;;;;;;4986799;28;98355;-79
2023/06/01 08:04:38;;;;;;;10.98;5.57;;;;;;;;;;4986963;28;99316;-79
2023/06/01 08:07:06;;;;;;;10.75;5.22;;;;;;;;;;4978764;28;99614;-80
2023/06/01 08:09:33;;;;;;;6.70;4.40;;;;;;;;;;4979012;28;98278;-80
2023/06/01 08:11:59;;;;;;;8.15;5.10;;;;;;;;;;4981921;28;99624;-78
2023/06/01 08:14:27;;;;;;;9.85;5.20;;;;;;;;;;4978548;28;98352;-78
2023/06/01 08:16:53;;;;;;;6.30;4.80;;;;;;;;;;4982784;28;99537;-80
2023/06/01 08:19:20;;;;;;;10.00;4.40;;;;;;;;;;4981452;28;100079;-78
2023/06/01 08:21:46;;;;;;;8.93;4.35;;;;;;;;;;4986652;28;98351;-76
2023/06/01 08:24:13;;;;;;;7.75;4.35;;;;;;;;;;4985811;28;99399;-77
2023/06/01 08:26:39;;;;;;;11.27;4.65;;;;;;;;;;4984779;28;99308;-80
2023/06/01 08:29:06;;;;;;;10.80;4.45;;;;;;;;;;4986970;28;98222;-78
2023/06/01 08:31:32;;;;;;;9.15;5.10;;;;;;;;;;4986759;28;99368;-79
2023/06/01 08:33:59;;;;;;;13.23;5.38;;;;;;;;;;4972756;28;99256;-79
2023/06/01 08:36:26;;;;;;;9.38;4.68;;;;;;;;;;4988314;28;98768;-77
2023/06/01 08:38:53;;;;;;;10.82;4.85;;;;;;;;;;4989514;28;98958;-78
2023/06/01 08:41:20;;;;;;;6.50;4.82;;;;;;;;;;4981329;28;99416;-78
2023/06/01 08:43:52;;;;;;;6.15;4.95;;;;;;;;;;4986504;28;101597;-79
2023/06/01 08:46:20;;;;;;;8.02;4.55;;;;;;;;;;4984093;28;98731;-79
2023/06/01 08:48:48;;;;;;;10.25;5.30;;;;;;;;;;4986391;28;98287;-78
2023/06/01 08:51:14;;;;;;;9.13;5.20;;;;;;;;;;4983180;28;98593;-78
2023/06/01 08:53:42;;;;;;;13.05;4.25;;;;;;;;;;4989565;28;99891;-79
2023/06/01 08:56:09;;;;;;;8.82;4.32;;;;;;;;;;4984204;28;98173;-78
2023/06/01 08:58:36;;;;;;;6.25;4.40;;;;;;;;;;4980483;28;100181;-79
2023/06/01 09:01:03;;;;;;;5.78;4.28;;;;;;;;;;4985908;28;99894;-79
2023/06/01 09:03:29;;;;;;;12.93;4.65;;;;;;;;;;4988539;28;100391;-79
2023/06/01 09:05:56;;;;;;;8.93;4.78;;;;;;;;;;4985401;28;99173;-79
2023/06/01 09:08:23;;;;;;;9.10;4.47;;;;;;;;;;4984321;28;98270;-80
2023/06/01 09:10:50;;;;;;;7.22;4.55;;;;;;;;;;4984792;28;98778;-79
2023/06/01 09:13:35;;;;;;;10.85;4.25;;;;;;;;;;4980951;28;98874;-79
2023/06/01 09:16:02;;;;;;;10.23;4.32;;;;;;;;;;4984760;28;98308;-78
2023/06/01 09:18:29;;;;;;;10.20;4.00;;;;;;;;;;4988986;28;101239;-79
2023/06/01 09:21:10;;;;;;;11.73;4.93;;;;;;;;;;4975207;28;99264;-79
2023/06/01 09:23:38;;;;;;;6.30;4.87;;;;;;;;;;4981530;28;98355;-77
2023/06/01 09:26:14;;;;;;;12.10;5.82;;;;;;;;;;4985699;28;100200;-80
2023/06/01 09:28:54;;;;;;;6.85;4.38;;;;;;;;;;4988717;28;98312;-81
2023/06/01 09:31:40;;;;;;;9.75;4.53;;;;;;;;;;4987573;28;98789;-80
2023/06/01 09:34:07;;;;;;;8.43;4.63;;;;;;;;;;4986409;28;99794;-80
2023/06/01 09:36:35;;;;;;;6.38;4.30;;;;;;;;;;4976882;28;98799;-78
2023/06/01 09:39:03;;;;;;;6.65;4.47;;;;;;;;;;4987910;28;99636;-78
2023/06/01 09:41:47;;;;;;;5.63;4.40;;;;;;;;;;4986229;28;98316;-78
2023/06/01 09:44:29;;;;;;;10.25;4.00;;;;;;;;;;4986060;28;98495;-79
2023/06/01 09:46:57;;;;;;;9.93;4.18;;;;;;;;;;4981815;28;100247;-79
2023/06/01 09:49:25;;;;;;;7.30;4.05;;;;;;;;;;4988406;28;98236;-80
2023/06/01 09:51:52;;;;;;;7.97;4.30;;;;;;;;;;4986569;28;99435;-79
2023/06/01 09:54:22;;;;;;;7.38;4.57;;;;;;;;;;4986919;28;99858;-80
2023/06/01 09:56:48;;;;;;;9.45;4.82;;;;;;;;;;4988507;28;98221;-79
2023/06/01 09:59:15;;;;;;;10.13;4.80;;;;;;;;;;4979392;28;98945;-81
2023/06/01 10:01:42;;;;;;;10.00;4.93;;;;;;;;;;4987187;28;98939;-81
2023/06/01 10:04:10;;;;;;;7.43;5.00;;;;;;;;;;4984314;28;99413;-81
2023/06/01 10:06:39;;;;;;;8.35;4.90;;;;;;;;;;4984740;28;100282;-81
2023/06/01 10:09:12;;;;;;;11.10;4.78;;;;;;;;;;4983076;28;99233;-79
2023/06/01 10:11:39;;;;;;;6.70;3.95;;;;;;;;;;4986555;28;98682;-78
2023/06/01 10:14:06;;;;;;;7.00;4.32;;;;;;;;;;4985098;28;100069;-80
2023/06/01 10:16:34;;;;;;;15.02;4.70;;;;;;;;;;4984515;28;98454;-78
2023/06/01 10:19:01;;;;;;;5.55;4.32;;;;;;;;;;4985964;28;98656;-77
2023/06/01 10:21:28;;;;;;;10.82;4.82;;;;;;;;;;4985116;28;100401;-79
2023/06/01 10:23:55;;;;;;;12.73;5.68;;;;;;;;;;4990380;28;98121;-80
2023/06/01 10:26:21;;;;;;;11.52;5.20;;;;;;;;;;4985584;28;100126;-80
2023/06/01 10:28:49;;;;;;;13.50;5.45;;;;;;;;;;4986099;28;98340;-80
2023/06/01 10:31:32;;;;;;;13.60;5.03;;;;;;;;;;4982377;28;98933;-81
2023/06/01 10:33:58;;;;;;;8.43;4.85;;;;;;;;;;4982185;28;99125;-78
2023/06/01 10:36:45;;;;;;;7.13;4.10;;;;;;;;;;4980849;28;98157;-80
2023/06/01 10:39:27;;;;;;;7.90;4.03;;;;;;;;;;4987460;28;99557;-79
2023/06/01 10:41:56;;;;;;;6.03;4.30;;;;;;;;;;4985609;28;100104;-80
2023/06/01 10:44:45;;;;;;;10.75;4.07;;;;;;;;;;4985553;28;98257;-81
2023/06/01 10:47:11;;;;;;;7.25;4.13;;;;;;;;;;4983682;28;99617;-79
2023/06/01 10:49:46;;;;;;;7.07;4.68;;;;;;;;;;4988367;28;98288;-80
2023/06/01 10:52:35;;;;;;;6.32;4.00;;;;;;;;;;4983145;28;99407;-80
2023/06/01 10:55:05;;;;;;;11.02;4.35;;;;;;;;;;4986956;28;99875;-79
2023/06/01 10:57:38;;;;;;;6.45;4.00;;;;;;;;;;4985997;28;99364;-79
2023/06/01 11:00:14;;;;;;;8.23;3.75;;;;;;;;;;4987276;28;99466;-79
2023/06/01 11:02:50;;;;;;;12.30;3.50;;;;;;;;;;4983205;28;100287;-80
2023/06/01 11:05:36;;;;;;;9.18;3.30;;;;;;;;;;4983400;28;98225;-78
2023/06/01 11:08:03;;;;;;;8.02;3.15;;;;;;;;;;4978373;28;98736;-77
2023/06/01 11:10:48;;;;;;;4.82;2.95;;;;;;;;;;4990067;28;100460;-78
2023/06/01 11:13:18;;;;;;;5.70;2.90;;;;;;;;;;4988518;28;99519;-77
2023/06/01 11:16:03;;;;;;;6.93;2.85;;;;;;;;;;4983691;28;100409;-77
2023/06/01 11:18:49;;;;;;;8.73;3.38;;;;;;;;;;4988489;28;99324;-79
2023/06/01 11:21:21;;;;;;;6.47;3.00;;;;;;;;;;4979602;28;99545;-80
2023/06/01 11:23:47;;;;;;;;;;;;;;;;;;4985320;28;100579;-78
2023/06/01 11:26:15;;;;;;;8.25;2.88;;;;;;;;;;4985710;28;122879;-81
2023/06/01 11:28:42;;;;;;;5.07;2.92;;;;;;;;;;4986990;28;98616;-76
2023/06/01 11:31:10;;;;;;;5.05;2.67;;;;;;;;;;4986218;28;100087;-79
2023/06/01 11:33:42;;;;;;;4.85;2.83;;;;;;;;;;4990385;28;98129;-79
2023/06/01 11:36:10;;;;;;;;;;;;;;;;;;4987965;28;99091;-78
2023/06/01 11:38:43;;;;;;;16.20;3.70;;;;;;;;;;4987137;28;122808;-80
2023/06/01 11:41:09;;;;;;;5.75;2.80;;;;;;;;;;4987783;28;98647;-80
2023/06/01 11:43:37;;;;;;;5.32;3.30;;;;;;;;;;4986916;28;99958;-80
2023/06/01 11:46:06;;;;;;;9.93;3.60;;;;;;;;;;4988840;28;98144;-79
2023/06/01 11:49:04;;;;;;;5.20;3.40;;;;;;;;;;4973797;28;98503;-77
2023/06/01 11:51:33;;;;;;;5.10;2.97;;;;;;;;;;4983573;28;99894;-78
2023/06/01 11:54:01;;;;;;;5.22;4.03;;;;;;;;;;4982319;28;98746;-79
2023/06/01 11:56:29;;;;;;;3.72;3.10;;;;;;;;;;4984151;28;99959;-80
2023/06/01 11:58:57;;;;;;;3.13;2.35;;;;;;;;;;4981979;28;98504;-80
2023/06/01 12:01:24;;;;;;;5.72;3.10;;;;;;;;;;4978141;28;98575;-79
2023/06/01 12:03:51;;;;;;;3.47;3.05;;;;;;;;;;4982384;28;98999;-80
2023/06/01 12:06:21;;;;;;;2.90;2.70;;;;;;;;;;4980327;28;98509;-78
2023/06/01 12:08:52;;;;;;;9.27;3.22;;;;;;;;;;4977178;28;99539;-80
2023/06/01 12:11:21;;;;;;;8.27;2.70;;;;;;;;;;4985109;28;100010;-77
2023/06/01 12:13:48;;;;;;;6.38;3.28;;;;;;;;;;4989000;28;98373;-79
2023/06/01 12:16:18;;;;;;;9.73;2.65;;;;;;;;;;5003263;28;99147;-79
2023/06/01 12:18:49;;;;;;;6.25;3.75;;;;;;;;;;4996752;28;98484;-78
2023/06/01 12:21:17;;;;;;;4.38;3.60;;;;;;;;;;4997587;28;99550;-79
2023/06/01 12:23:52;;;;;;;11.40;2.83;;;;;;;;;;4988515;28;100007;-80
2023/06/01 12:26:19;;;;;;;6.28;2.60;;;;;;;;;;4985242;28;98267;-79
2023/06/01 12:28:54;;;;;;;7.22;3.25;;;;;;;;;;4990131;28;99437;-80
2023/06/01 12:31:26;;;;;;;6.80;3.20;;;;;;;;;;4984334;28;99839;-79
2023/06/01 12:33:53;;;;;;;6.00;2.95;;;;;;;;;;4976025;28;98716;-81
2023/06/01 12:36:33;;;;;;;10.00;3.10;;;;;;;;;;4990608;28;99876;-81
2023/06/01 12:39:00;;;;;;;12.48;3.65;;;;;;;;;;4990307;28;99090;-80
2023/06/01 12:41:27;;;;;;;6.45;3.05;;;;;;;;;;4987963;28;99257;-79
2023/06/01 12:43:53;;;;;;;7.70;3.50;;;;;;;;;;4985859;28;99798;-79
2023/06/01 12:46:21;;;;;;;14.43;3.45;;;;;;;;;;4984091;28;99009;-79
2023/06/01 12:48:48;;;;;;;9.60;3.47;;;;;;;;;;4987862;28;98549;-80
2023/06/01 12:51:15;;;;;;;8.48;3.47;;;;;;;;;;4988065;28;99099;-80
2023/06/01 12:53:44;;;;;;;7.25;2.75;;;;;;;;;;4986731;28;98840;-78
2023/06/01 12:56:12;;;;;;;6.38;2.42;;;;;;;;;;4987129;28;99479;-78
2023/06/01 12:58:39;;;;;;;4.63;2.60;;;;;;;;;;4985059;28;99934;-80
2023/06/01 13:01:05;;;;;;;1.70;1.52;;;;;;;;;;4989442;28;98430;-79
2023/06/01 13:03:33;;;;;;;7.18;2.38;;;;;;;;;;4989597;28;99035;-78
2023/06/01 13:06:00;;;;;;;5.72;2.20;;;;;;;;;;4987921;28;98234;-79
2023/06/01 13:08:26;;;;;;;2.97;2.05;;;;;;;;;;4989955;28;99893;-79
2023/06/01 13:10:54;;;;;;;3.28;2.00;;;;;;;;;;4989646;28;99064;-77
2023/06/01 13:13:20;;;;;;;7.28;2.20;;;;;;;;;;5002748;28;98019;-77
2023/06/01 13:15:47;;;;;;;6.25;2.78;;;;;;;;;;4998691;28;98679;-79
2023/06/01 13:18:15;;;;;;;4.65;2.50;;;;;;;;;;4986213;28;99151;-79
2023/06/01 13:20:42;;;;;;;4.13;2.92;;;;;;;;;;4989664;28;98245;-78
2023/06/01 13:23:11;;;;;;;9.50;2.92;;;;;;;;;;4981766;28;99274;-79
2023/06/01 13:25:38;;;;;;;5.38;2.70;;;;;;;;;;4978827;28;98334;-80
2023/06/01 13:28:05;;;;;;;8.27;2.70;;;;;;;;;;4984503;28;98495;-78
2023/06/01 13:30:33;;;;;;;3.75;2.40;;;;;;;;;;4978457;28;99847;-79
2023/06/01 13:33:00;;;;;;;4.68;2.42;;;;;;;;;;4987366;28;98554;-78
2023/06/01 13:35:26;;;;;;;6.10;2.38;;;;;;;;;;4978584;28;99383;-75
2023/06/01 13:37:53;;;;;;;6.50;2.45;;;;;;;;;;4985726;28;99061;-77
2023/06/01 13:40:22;;;;;;;2.80;2.28;;;;;;;;;;4977243;28;100347;-77
2023/06/01 13:42:50;;;;;;;2.88;2.08;;;;;;;;;;4989159;28;98602;-79
2023/06/01 13:45:21;;;;;;;2.13;1.92;;;;;;;;;;4991826;28;98920;-79
2023/06/01 13:47:48;;;;;;;2.60;1.60;;;;;;;;;;4992942;28;98866;-81
2023/06/01 13:50:17;;;;;;;3.80;2.15;;;;;;;;;;4989923;28;99932;-81
2023/06/01 13:52:44;;;;;;;1.70;1.60;;;;;;;;;;4995217;28;98180;-80
2023/06/01 13:55:12;;;;;;;3.40;1.95;;;;;;;;;;5003761;28;99650;-78
2023/06/01 13:57:39;;;;;;;2.97;1.92;;;;;;;;;;5005267;28;99376;-79
2023/06/01 14:00:08;;;;;;;3.28;2.15;;;;;;;;;;4988907;28;99356;-81
2023/06/01 14:02:35;;;;;;;5.15;1.65;;;;;;;;;;4980751;28;99284;-79
2023/06/01 14:05:02;;;;;;;6.03;1.98;;;;;;;;;;4989212;28;99477;-79
2023/06/01 14:07:35;;;;;;;3.28;1.83;;;;;;;;;;4989923;28;98826;-79
2023/06/01 14:10:02;;;;;;;4.05;1.70;;;;;;;;;;4998276;28;99065;-80
2023/06/01 14:12:28;;;;;;;4.50;2.65;;;;;;;;;;4989278;28;98387;-80
2023/06/01 14:14:55;;;;;;;1.60;1.50;;;;;;;;;;4982987;28;100112;-82
2023/06/01 14:17:21;;;;;;;4.70;1.88;;;;;;;;;;4985817;28;100119;-80
2023/06/01 14:19:48;;;;;;;4.80;1.90;;;;;;;;;;4985118;28;98164;-81
2023/06/01 14:22:15;;;;;;;1.40;1.30;;;;;;;;;;4993345;28;98517;-82
2023/06/01 14:24:41;;;;;;;1.50;1.40;;;;;;;;;;4980838;28;100484;-82
2023/06/01 14:27:08;;;;;;;1.85;0.90;;;;;;;;;;4983455;28;98275;-80
2023/06/01 14:29:34;;;;;;;3.10;1.63;;;;;;;;;;4992298;28;98609;-81
2023/06/01 14:32:00;;;;;;;7.38;1.73;;;;;;;;;;4997318;28;98379;-81
2023/06/01 14:34:27;;;;;;;4.65;1.60;;;;;;;;;;4997904;28;99353;-81
2023/06/01 14:36:53;;;;;;;2.88;1.92;;;;;;;;;;4990465;28;100108;-81
2023/06/01 14:39:20;;;;;;;1.85;1.52;;;;;;;;;;4982014;28;98558;-79
2023/06/01 14:41:47;;;;;;;1.98;1.58;;;;;;;;;;4986354;28;100331;-81